Архив погоды в Краснощелье

Метеограмма Краснощелье
Среда, 22 Мая
Время местн. Темп Ветер Видим Явления Облачность нижн/средн/верх Атм. давл. Влжн Точка росы ВНГО R Сост. почвы Tg s
Напр Скр Прв ур.ст ур.м изм
21:00 +1.1° С 2 5 20 км небо без изменений {ливневые осадки} преимущественно облачно 750 764 +0.4 61% -5.5° 1 км 0.3 - - -
18:00 +2.1° В,С-В 3 7 20 км слабый ливневый снег преимущественно облачно 749 764 +0.2 78% -1.4° 600 м - - - -
15:00 +4.2° С,С-В 1 3 20 км - облачно 749 764 -0.2 53% -4.6° 1 км - - - -
12:00 +3.7° В,С-В 2 6 20 км - облачно 749 764 +0.2 51% -5.4° 600 м - - - -
09:00 +3.1° С,С-В 1 4 20 км ливневый снег или ливневый снег с дождем преимущественно облачно 749 764 -0.4 69% -2° 1 км 0 Сухая (без трещин) - -
06:00 +0.8° С 3 5 20 км - преимущественно облачно 750 764 -0.8 68% -4.5° 1.5 км - - - -
03:00 +0.6° С 2 3 20 км - преимущественно облачно 750 765 -0.5 82% -2.1° 1.5 км - - - -
00:00 +1.1° С,С-В 1 3 20 км - облачно 751 766 +0.2 76% -2.7° 2 км - - - -
Вторник, 21 Мая
Время местн. Темп Ветер Видим Явления Облачность нижн/средн/верх Атм. давл. Влжн Точка росы ВНГО R Сост. почвы Tg s
Напр Скр Прв ур.ст ур.м изм
21:00 +3.2° С,С-В 2 4 20 км - облачно 751 765 +0.2 73% -1.2° 600 м 0 - - -
18:00 +7° С 4 7 20 км - преимущественно облачно 750 765 +0.2 69% +1.8° 1.5 км - - - -
15:00 +11.5° З 2 3 20 км - преимущественно облачно 750 764 -0.8 33% -4° 1.5 км - - - -
12:00 +9.9° Ю,Ю-З 2 3 20 км - преимущественно облачно 751 765 -0.7 27% -8° 1.5 км - - - -
09:00 +7° З 2 3 20 км - преимущественно облачно 752 766 -0.6 32% -8.5° 1 км 0 Сухая (без трещин) - -
06:00 +2.4° З,С-З 1 1 20 км - преимущественно облачно 752 767 -0.2 63% -3.9° 1 км - - - -
03:00 +0.9° Ю 1 2 20 км - облачно с прояснениями 752 767 -0.5 75% -3° 1 км - - - -
00:00 +1° Ю 1 1 20 км - переменная облачность 753 768 +0.2 86% -1.1° 1 км - - - -
Понедельник, 20 Мая
Время местн. Темп Ветер Видим Явления Облачность нижн/средн/верх Атм. давл. Влжн Точка росы ВНГО R Сост. почвы Tg s
Напр Скр Прв ур.ст ур.м изм
21:00 +7.9° Ю-З 3 5 20 км - незначительная облачность 753 767 -0.5 60% +0.7° - 0 - - -
18:00 +10.8° В,Ю-В 2 4 20 км - незначительная облачность 753 767 -1.1 44% -1.1° 1.5 км - - - -
15:00 +10° Ю-В 2 5 20 км - переменная облачность 754 769 -0.8 47% -0.9° 1.5 км - - - -
12:00 +7.7° С-В 1 5 20 км - переменная облачность 755 770 -0.5 51% -1.7° 1 км - - - -
09:00 +5° Ю,Ю-В 1 3 20 км - переменная облачность 756 770 -0.2 60% -2° 1 км 0 Влажная (без луж) - -
06:00 +1.7° В 1 3 20 км - ясно 756 771 0 79% -1.5° более 2.5 км - - - -
03:00 -3.6° штиль 0 - 20 км - ясно 756 771 +0.5 96% -4.1° более 2.5 км - - - -
00:00 -1.5° В 1 1 20 км - незначительная облачность 755 770 +0.2 88% -3.2° 1 км - - - -
Воскресенье, 19 Мая
Время местн. Темп Ветер Видим Явления Облачность нижн/средн/верх Атм. давл. Влжн Точка росы ВНГО R Сост. почвы Tg s
Напр Скр Прв ур.ст ур.м изм
21:00 +4° С-В 2 3 20 км - облачно с прояснениями 755 770 -0.2 65% -1.9° 1 км 0 - - -
18:00 +5.1° В 1 2 20 км - преимущественно облачно 755 770 0 57% -2.7° 1 км - - - -